Decoded Metar for LFOE (EVREUX in FRANCE) (IATA:N/A) | Meteo·Mobile Aviation Weather
aviador You're here:

LFOE Decoded Metar

EVREUX in FRANCE
Report Time2019-01-19 05:30:00
UTC Time2019-01-19 05:56:49
Flight Rules ifr IFR
Wind120° at 08 kt
W.Decomp.*RWY 04: 1.3 kt HW 7.9 kt RCW
W.Rank120° ranks 32
Current wind is above 120° avg. (5.9)
Visibility9999 m
Phenomena:N/A
Clouds:Broken 008 Hf
Ceiling800 ft
Temp-2°C (ISA -16)
Dew Point-2°C (100% RH)
AAT-7.1°C
QNH1011 hPa
Density Alt-1,348 ft
Elevation479 ft
Report Wrong Elevation
Raw Report
LFOE 190530Z AUTO 12008KT CAVOK M02/M02 Q1011 TEMPO BKN008 BECMG
1500 -SN=

Extra information for LFOE:More info

Metar Taf Metar & Taf Last 4 Metars F.Rules Stats Wind Profile Meteogram Temp Stats Airport Information Weather charts Add Link Nearby VenuesMetar ALERT Operation Metar Decoded Social comments